createdAt,value
2023-02-22T00:03:32.347Z,7.22
2023-02-22T00:08:34.154Z,7.20
2023-02-22T00:13:30.983Z,7.23
2023-02-22T00:18:28.816Z,7.25
2023-02-22T00:23:28.412Z,7.11
2023-02-22T00:28:25.354Z,7.19
2023-02-22T00:33:21.748Z,7.22
2023-02-22T00:38:19.493Z,7.22
2023-02-22T00:43:15.895Z,7.14
2023-02-22T00:48:12.321Z,7.11
2023-02-22T00:53:10.241Z,7.07
2023-02-22T00:58:07.566Z,6.98
2023-02-22T01:03:06.086Z,6.89
2023-02-22T01:08:03.058Z,6.73
2023-02-22T01:13:00.855Z,6.50
2023-02-22T01:17:59.487Z,6.32
2023-02-22T01:22:56.911Z,6.09
2023-02-22T01:27:54.093Z,5.94
2023-02-22T01:32:53.636Z,5.78
2023-02-22T01:37:50.248Z,5.65
2023-02-22T01:42:55.149Z,5.49
2023-02-22T01:47:51.521Z,5.42
2023-02-22T01:52:48.685Z,5.21
2023-02-22T01:57:47.769Z,5.04
2023-02-22T02:02:47.243Z,4.91
2023-02-22T02:07:46.522Z,5.10
2023-02-22T02:12:46.324Z,5.07
2023-02-22T02:17:43.582Z,4.94
2023-02-22T02:22:54.873Z,4.94
2023-02-22T02:28:13.093Z,4.96
2023-02-22T02:33:29.297Z,4.87
2023-02-22T02:38:34.237Z,4.69
2023-02-22T02:43:43.807Z,4.71
2023-02-22T02:48:46.871Z,4.78
2023-02-22T02:53:47.352Z,4.80
2023-02-22T02:58:49.272Z,4.88
2023-02-22T03:04:04.143Z,4.92
2023-02-22T03:09:13.895Z,4.70
2023-02-22T03:14:20.609Z,4.61
2023-02-22T03:19:21.842Z,4.59
2023-02-22T03:24:25.478Z,4.61
2023-02-22T03:29:24.652Z,4.49
2023-02-22T03:34:26.035Z,4.46
2023-02-22T03:39:30.897Z,4.43
2023-02-22T03:44:30.930Z,4.36
2023-02-22T03:49:36.040Z,4.34
2023-02-22T03:54:32.950Z,4.29
2023-02-22T03:59:30.048Z,4.24
2023-02-22T04:04:26.768Z,4.20
2023-02-22T04:09:23.303Z,4.20
2023-02-22T04:14:19.665Z,4.23
2023-02-22T04:19:16.004Z,4.29
2023-02-22T04:24:12.460Z,4.18
2023-02-22T04:29:08.934Z,4.18
2023-02-22T04:34:06.055Z,4.32
2023-02-22T04:39:02.614Z,4.19
2023-02-22T04:43:59.113Z,4.10
2023-02-22T04:48:55.557Z,4.06
2023-02-22T04:53:51.901Z,4.18
2023-02-22T04:58:48.284Z,3.99
2023-02-22T05:03:44.643Z,3.80
2023-02-22T05:08:41.016Z,3.71
2023-02-22T05:13:37.359Z,3.74
2023-02-22T05:18:33.732Z,3.83
2023-02-22T05:23:30.129Z,3.62
2023-02-22T05:28:26.956Z,3.57
2023-02-22T05:33:23.444Z,3.82
2023-02-22T05:38:19.785Z,3.94
2023-02-22T05:43:16.563Z,4.02
2023-02-22T05:48:12.961Z,4.06
2023-02-22T05:53:09.624Z,4.08
2023-02-22T05:58:06.155Z,4.14
2023-02-22T06:03:09.764Z,4.15
2023-02-22T06:08:07.205Z,4.10
2023-02-22T06:13:04.946Z,4.11
2023-02-22T06:18:02.300Z,4.13
2023-02-22T06:22:59.206Z,4.24
2023-02-22T06:27:55.542Z,4.29
2023-02-22T06:32:52.551Z,4.41
2023-02-22T06:37:48.965Z,4.47
2023-02-22T06:42:48.011Z,4.52
2023-02-22T06:47:44.381Z,4.65
2023-02-22T06:52:44.022Z,4.76
2023-02-22T06:57:40.450Z,4.84
2023-02-22T07:02:37.202Z,4.97
2023-02-22T07:07:33.639Z,5.15
2023-02-22T07:12:30.016Z,5.27
2023-02-22T07:17:26.468Z,5.38
2023-02-22T07:22:23.190Z,5.60
2023-02-22T07:27:19.572Z,5.78
2023-02-22T07:32:15.962Z,6.03
2023-02-22T07:37:12.848Z,6.08
2023-02-22T07:42:09.952Z,6.13
2023-02-22T07:47:06.390Z,6.21
2023-02-22T07:52:02.765Z,6.28
2023-02-22T07:56:59.141Z,6.39
2023-02-22T08:01:55.494Z,6.53
2023-02-22T08:06:51.986Z,6.67
2023-02-22T08:11:48.736Z,6.85
2023-02-22T08:16:45.195Z,7.01
2023-02-22T08:21:41.568Z,7.31
2023-02-22T08:26:43.960Z,7.59
2023-02-22T08:31:40.843Z,7.81
2023-02-22T08:36:42.062Z,7.98
2023-02-22T08:41:38.396Z,8.11
2023-02-22T08:46:34.998Z,8.24
2023-02-22T08:51:35.434Z,8.43
2023-02-22T08:56:33.238Z,8.48
2023-02-22T09:01:33.400Z,8.68
2023-02-22T09:06:30.159Z,8.94
2023-02-22T09:11:26.592Z,9.26
2023-02-22T09:16:23.101Z,9.32
2023-02-22T09:21:19.631Z,9.56
2023-02-22T09:26:16.130Z,9.67
2023-02-22T09:31:12.746Z,9.78
2023-02-22T09:36:09.225Z,10.02
2023-02-22T09:41:05.707Z,10.13
2023-02-22T09:46:19.113Z,10.34
2023-02-22T09:51:19.309Z,10.58
2023-02-22T09:56:20.454Z,10.68
2023-02-22T10:01:39.509Z,10.80
2023-02-22T10:06:38.323Z,10.83
2023-02-22T10:11:49.033Z,10.89
2023-02-22T10:16:59.445Z,11.13
2023-02-22T10:22:15.203Z,11.24
2023-02-22T10:27:31.818Z,11.38
2023-02-22T10:32:35.586Z,11.62
2023-02-22T10:37:34.451Z,11.90
2023-02-22T10:42:31.052Z,12.07
2023-02-22T10:47:27.979Z,12.26
2023-02-22T10:52:27.926Z,12.46
2023-02-22T10:57:33.791Z,12.53
2023-02-22T11:02:36.164Z,12.52
2023-02-22T11:07:35.211Z,12.73
2023-02-22T11:12:37.669Z,12.82
2023-02-22T11:17:34.949Z,13.14
2023-02-22T11:22:41.113Z,13.35
2023-02-22T11:27:40.933Z,13.50
2023-02-22T11:32:44.596Z,13.46
2023-02-22T11:37:41.036Z,13.60
2023-02-22T11:42:37.931Z,13.60
2023-02-22T11:47:35.541Z,13.62
2023-02-22T11:52:40.912Z,13.86
2023-02-22T11:57:53.415Z,13.99
2023-02-22T12:03:28.804Z,13.88
2023-02-22T12:08:47.128Z,13.89
2023-02-22T12:13:53.300Z,13.82
2023-02-22T12:19:16.823Z,13.96
2023-02-22T12:24:23.859Z,14.10
2023-02-22T12:29:30.981Z,14.18
2023-02-22T12:34:57.814Z,14.15
2023-02-22T12:40:13.442Z,14.41
2023-02-22T12:45:21.375Z,14.49
2023-02-22T12:50:23.329Z,14.38
2023-02-22T12:55:38.834Z,14.37
2023-02-22T13:00:46.344Z,14.36
2023-02-22T13:05:49.393Z,14.37
2023-02-22T13:10:57.775Z,14.20
2023-02-22T13:16:16.567Z,14.22
2023-02-22T13:21:29.394Z,14.29
2023-02-22T13:26:34.816Z,14.27
2023-02-22T13:31:57.305Z,14.27
2023-02-22T13:37:31.876Z,14.18
2023-02-22T13:42:44.061Z,14.14
2023-02-22T13:48:17.441Z,14.17
2023-02-22T13:53:26.482Z,14.18
2023-02-22T13:58:23.569Z,14.24
2023-02-22T14:03:24.010Z,14.20
2023-02-22T14:08:21.686Z,14.34
2023-02-22T14:13:22.734Z,14.35
2023-02-22T14:18:19.087Z,14.23
2023-02-22T14:23:35.627Z,14.16
2023-02-22T14:28:37.773Z,14.01
2023-02-22T14:33:57.449Z,14.01
2023-02-22T14:38:58.000Z,13.90
2023-02-22T14:43:56.421Z,13.79
2023-02-22T14:49:00.760Z,13.79
2023-02-22T14:54:25.503Z,13.79
2023-02-22T14:59:25.991Z,13.90
2023-02-22T15:04:25.524Z,13.94
2023-02-22T15:09:28.437Z,13.85
2023-02-22T15:14:26.814Z,13.71
2023-02-22T15:19:29.201Z,13.51
2023-02-22T15:24:33.072Z,13.42
2023-02-22T15:29:38.340Z,13.36
2023-02-22T15:34:34.696Z,13.30
2023-02-22T15:39:34.347Z,13.16
2023-02-22T15:44:36.176Z,13.13
2023-02-22T15:49:37.726Z,13.07
2023-02-22T15:54:42.930Z,12.84
2023-02-22T15:59:48.555Z,12.70
2023-02-22T16:04:54.566Z,12.49
2023-02-22T16:09:54.590Z,12.31
2023-02-22T16:14:54.360Z,12.21
2023-02-22T16:19:52.646Z,12.11
2023-02-22T16:24:52.497Z,11.99
2023-02-22T16:30:24.532Z,11.77
2023-02-22T16:35:28.281Z,11.39
2023-02-22T16:40:38.373Z,11.13
2023-02-22T16:45:36.594Z,10.83
2023-02-22T16:50:32.981Z,10.68
2023-02-22T16:55:29.706Z,10.59
2023-02-22T17:00:32.355Z,10.40
2023-02-22T17:05:28.682Z,10.11
2023-02-22T17:10:26.142Z,9.87
2023-02-22T17:15:27.063Z,9.66
2023-02-22T17:20:30.077Z,9.57
2023-02-22T17:25:36.851Z,9.46
2023-02-22T17:30:35.722Z,9.42
2023-02-22T17:35:36.862Z,9.20
2023-02-22T17:40:39.087Z,9.08
2023-02-22T17:45:39.521Z,8.97
2023-02-22T17:50:40.818Z,8.87
2023-02-22T17:55:39.252Z,8.80
2023-02-22T18:00:36.419Z,8.78
2023-02-22T18:05:34.174Z,8.77
2023-02-22T18:10:31.111Z,8.68
2023-02-22T18:15:30.122Z,8.46
2023-02-22T18:20:38.717Z,8.44
2023-02-22T18:25:37.252Z,8.41
2023-02-22T18:30:36.834Z,8.28
2023-02-22T18:35:34.744Z,8.31
2023-02-22T18:40:32.364Z,8.30
2023-02-22T18:45:30.059Z,8.26
2023-02-22T18:50:29.842Z,8.28
2023-02-22T18:55:27.141Z,8.38
2023-02-22T19:00:29.354Z,8.37
2023-02-22T19:05:26.992Z,8.38
2023-02-22T19:10:24.391Z,8.43
2023-02-22T19:15:23.644Z,8.37
2023-02-22T19:20:21.869Z,8.36
2023-02-22T19:25:29.819Z,8.27
2023-02-22T19:30:28.118Z,8.17
2023-02-22T19:35:31.493Z,8.12
2023-02-22T19:40:29.202Z,8.05
2023-02-22T19:45:25.622Z,7.92
2023-02-22T19:50:22.513Z,7.79
2023-02-22T19:55:18.816Z,7.74
2023-02-22T20:00:24.122Z,7.67
2023-02-22T20:05:20.431Z,7.74
2023-02-22T20:10:16.830Z,7.76
2023-02-22T20:15:13.728Z,7.71
2023-02-22T20:20:10.441Z,7.60
2023-02-22T20:25:06.991Z,7.54
2023-02-22T20:30:04.420Z,7.43
2023-02-22T20:35:01.021Z,7.39
2023-02-22T20:39:59.749Z,7.19
2023-02-22T20:45:01.672Z,6.84
2023-02-22T20:49:58.172Z,6.62
2023-02-22T20:54:56.292Z,6.68
2023-02-22T20:59:52.606Z,6.72
2023-02-22T21:04:48.980Z,6.59
2023-02-22T21:09:45.329Z,6.69
2023-02-22T21:14:44.197Z,6.69
2023-02-22T21:19:40.709Z,6.70
2023-02-22T21:24:37.186Z,6.53
2023-02-22T21:29:35.431Z,6.32
2023-02-22T21:34:31.791Z,6.26
2023-02-22T21:39:28.934Z,6.30
2023-02-22T21:44:26.320Z,6.07
2023-02-22T21:49:23.231Z,5.90
2023-02-22T21:54:20.346Z,5.81
2023-02-22T21:59:20.034Z,5.82
2023-02-22T22:04:23.439Z,5.62
2023-02-22T22:09:23.336Z,5.58
2023-02-22T22:14:24.370Z,5.45
2023-02-22T22:19:20.857Z,5.27
2023-02-22T22:24:19.842Z,5.33
2023-02-22T22:29:18.566Z,5.34
2023-02-22T22:34:14.939Z,5.37
2023-02-22T22:39:14.187Z,5.40
2023-02-22T22:44:12.303Z,5.56
2023-02-22T22:49:10.758Z,5.80
2023-02-22T22:54:09.360Z,5.78
2023-02-22T22:59:08.017Z,5.61
2023-02-22T23:04:06.428Z,5.44
2023-02-22T23:09:14.944Z,5.51
2023-02-22T23:14:19.689Z,5.42
2023-02-22T23:19:16.275Z,5.27
2023-02-22T23:24:17.222Z,5.31
2023-02-22T23:29:13.712Z,5.49
2023-02-22T23:34:12.729Z,5.48
2023-02-22T23:39:09.134Z,5.51
2023-02-22T23:44:08.350Z,5.85
2023-02-22T23:49:05.498Z,6.06
2023-02-22T23:54:02.206Z,6.23
2023-02-22T23:58:58.602Z,6.30
